createdAt,value
2018-09-29T00:02:00.734Z,14.00
2018-09-29T00:04:28.672Z,14.00
2018-09-29T00:06:56.598Z,13.90
2018-09-29T00:09:24.521Z,13.90
2018-09-29T00:11:52.468Z,13.90
2018-09-29T00:14:20.377Z,13.90
2018-09-29T00:16:48.309Z,13.90
2018-09-29T00:19:16.255Z,13.90
2018-09-29T00:21:44.230Z,13.80
2018-09-29T00:24:12.150Z,13.70
2018-09-29T00:26:40.049Z,13.60
2018-09-29T00:29:08.044Z,13.60
2018-09-29T00:31:35.993Z,13.50
2018-09-29T00:34:03.893Z,13.50
2018-09-29T00:36:31.992Z,13.50
2018-09-29T00:38:59.897Z,13.40
2018-09-29T00:41:27.787Z,13.30
2018-09-29T00:43:55.705Z,13.30
2018-09-29T00:46:23.701Z,13.30
2018-09-29T00:48:51.603Z,13.20
2018-09-29T00:51:19.581Z,13.20
2018-09-29T00:53:47.520Z,13.20
2018-09-29T00:56:15.496Z,13.20
2018-09-29T00:58:43.413Z,13.20
2018-09-29T01:01:11.363Z,13.20
2018-09-29T01:03:39.330Z,13.20
2018-09-29T01:06:07.245Z,13.20
2018-09-29T01:08:35.229Z,13.20
2018-09-29T01:11:03.148Z,13.20
2018-09-29T01:13:31.125Z,13.20
2018-09-29T01:15:59.081Z,13.10
2018-09-29T01:18:27.010Z,13.10
2018-09-29T01:20:54.948Z,13.10
2018-09-29T01:23:22.833Z,13.10
2018-09-29T01:25:50.824Z,13.10
2018-09-29T01:28:18.717Z,13.10
2018-09-29T01:30:46.596Z,13.10
2018-09-29T01:33:14.545Z,13.10
2018-09-29T01:35:42.479Z,12.90
2018-09-29T01:38:10.465Z,12.90
2018-09-29T01:40:38.394Z,12.90
2018-09-29T01:43:06.406Z,12.80
2018-09-29T01:45:34.295Z,12.70
2018-09-29T01:48:02.189Z,12.80
2018-09-29T01:50:30.237Z,12.80
2018-09-29T01:52:58.135Z,12.60
2018-09-29T01:55:26.049Z,12.60
2018-09-29T01:57:53.964Z,12.50
2018-09-29T02:00:21.890Z,12.50
2018-09-29T02:02:49.858Z,12.40
2018-09-29T02:05:17.896Z,12.30
2018-09-29T02:07:45.841Z,12.20
2018-09-29T02:10:13.798Z,12.10
2018-09-29T02:12:41.736Z,12.10
2018-09-29T02:15:09.870Z,12.20
2018-09-29T02:17:37.878Z,12.00
2018-09-29T02:20:05.847Z,11.90
2018-09-29T02:22:33.812Z,12.00
2018-09-29T02:25:01.746Z,11.90
2018-09-29T02:27:29.694Z,11.70
2018-09-29T02:29:57.603Z,11.70
2018-09-29T02:32:25.477Z,11.70
2018-09-29T02:34:53.365Z,11.60
2018-09-29T02:37:21.383Z,11.60
2018-09-29T02:39:49.268Z,11.60
2018-09-29T02:42:17.156Z,11.60
2018-09-29T02:44:45.082Z,11.60
2018-09-29T02:47:13.064Z,11.60
2018-09-29T02:49:41.021Z,11.40
2018-09-29T02:52:09.789Z,11.50
2018-09-29T02:54:37.725Z,11.40
2018-09-29T02:57:05.717Z,11.40
2018-09-29T02:59:33.682Z,11.50
2018-09-29T03:02:01.654Z,11.50
2018-09-29T03:04:29.556Z,11.50
2018-09-29T03:06:57.456Z,11.50
2018-09-29T03:09:25.405Z,11.50
2018-09-29T03:11:53.312Z,11.50
2018-09-29T03:14:21.213Z,11.50
2018-09-29T03:16:49.200Z,11.50
2018-09-29T03:19:17.135Z,11.40
2018-09-29T03:21:45.038Z,11.30
2018-09-29T03:24:12.981Z,11.40
2018-09-29T03:26:40.900Z,11.50
2018-09-29T03:29:08.824Z,11.40
2018-09-29T03:31:36.762Z,11.50
2018-09-29T03:34:04.694Z,11.50
2018-09-29T03:36:32.588Z,11.40
2018-09-29T03:39:00.525Z,11.50
2018-09-29T03:41:28.444Z,11.50
2018-09-29T03:43:56.350Z,11.40
2018-09-29T03:46:24.258Z,11.50
2018-09-29T03:48:52.166Z,11.30
2018-09-29T03:51:20.103Z,11.40
2018-09-29T03:53:48.005Z,11.30
2018-09-29T03:56:15.929Z,11.30
2018-09-29T03:58:43.902Z,11.30
2018-09-29T04:01:11.888Z,11.40
2018-09-29T04:03:39.825Z,11.40
2018-09-29T04:06:07.737Z,11.30
2018-09-29T04:08:35.640Z,11.30
2018-09-29T04:11:03.581Z,11.30
2018-09-29T04:13:32.531Z,11.30
2018-09-29T04:16:00.654Z,11.20
2018-09-29T04:18:28.542Z,11.20
2018-09-29T04:20:56.486Z,11.20
2018-09-29T04:23:24.472Z,11.20
2018-09-29T04:25:52.430Z,11.20
2018-09-29T04:28:20.364Z,11.10
2018-09-29T04:30:48.263Z,11.00
2018-09-29T04:33:16.133Z,11.00
2018-09-29T04:35:44.242Z,11.10
2018-09-29T04:38:12.114Z,11.10
2018-09-29T04:40:39.982Z,11.00
2018-09-29T04:43:07.941Z,11.00
2018-09-29T04:45:35.857Z,10.90
2018-09-29T04:48:03.785Z,10.90
2018-09-29T04:50:31.733Z,10.80
2018-09-29T04:52:59.677Z,10.90
2018-09-29T04:55:28.171Z,10.90
2018-09-29T04:57:56.094Z,10.90
2018-09-29T05:00:24.076Z,10.90
2018-09-29T05:02:51.937Z,10.70
2018-09-29T05:05:19.988Z,10.60
2018-09-29T05:07:47.941Z,10.60
2018-09-29T05:10:15.828Z,10.60
2018-09-29T05:12:43.762Z,10.80
2018-09-29T05:15:11.730Z,10.80
2018-09-29T05:17:39.670Z,10.70
2018-09-29T05:20:07.705Z,10.70
2018-09-29T05:22:35.579Z,10.60
2018-09-29T05:25:03.545Z,10.60
2018-09-29T05:27:31.448Z,10.60
2018-09-29T05:29:59.984Z,10.60
2018-09-29T05:32:27.861Z,10.60
2018-09-29T05:34:55.706Z,10.60
2018-09-29T05:37:23.749Z,10.60
2018-09-29T05:39:51.793Z,10.70
2018-09-29T05:42:19.768Z,10.70
2018-09-29T05:44:47.650Z,10.60
2018-09-29T05:47:15.618Z,10.60
2018-09-29T05:49:43.557Z,10.60
2018-09-29T05:52:11.505Z,10.60
2018-09-29T05:54:39.430Z,10.60
2018-09-29T05:57:07.465Z,10.60
2018-09-29T05:59:35.441Z,10.50
2018-09-29T06:02:03.390Z,10.50
2018-09-29T06:04:31.292Z,10.60
2018-09-29T06:06:59.331Z,10.50
2018-09-29T06:09:27.219Z,10.60
2018-09-29T06:11:55.113Z,10.60
2018-09-29T06:14:23.209Z,10.60
2018-09-29T06:16:51.121Z,10.70
2018-09-29T06:19:19.084Z,10.70
2018-09-29T06:21:46.981Z,10.70
2018-09-29T06:24:14.907Z,10.60
2018-09-29T06:26:42.872Z,10.60
2018-09-29T06:29:10.813Z,10.60
2018-09-29T06:31:38.746Z,10.60
2018-09-29T06:34:06.704Z,10.70
2018-09-29T06:36:34.626Z,10.70
2018-09-29T06:39:02.766Z,10.70
2018-09-29T06:41:30.906Z,10.70
2018-09-29T06:43:58.850Z,10.80
2018-09-29T06:46:26.841Z,10.80
2018-09-29T06:48:54.749Z,10.80
2018-09-29T06:51:22.687Z,10.90
2018-09-29T06:53:50.602Z,10.90
2018-09-29T06:56:18.760Z,11.00
2018-09-29T06:58:46.706Z,11.00
2018-09-29T07:01:14.631Z,11.00
2018-09-29T07:03:43.085Z,11.00
2018-09-29T07:06:11.145Z,11.10
2018-09-29T07:08:39.153Z,11.20
2018-09-29T07:11:07.126Z,11.20
2018-09-29T07:13:35.026Z,11.30
2018-09-29T07:16:02.978Z,11.40
2018-09-29T07:18:30.857Z,11.40
2018-09-29T07:20:58.873Z,11.40
2018-09-29T07:23:26.803Z,11.50
2018-09-29T07:25:55.060Z,11.60
2018-09-29T07:28:22.993Z,11.60
2018-09-29T07:30:50.957Z,11.60
2018-09-29T07:33:19.114Z,11.70
2018-09-29T07:35:46.988Z,11.80
2018-09-29T07:38:14.899Z,11.90
2018-09-29T07:40:42.797Z,11.90
2018-09-29T07:43:10.661Z,12.00
2018-09-29T07:45:38.632Z,12.00
2018-09-29T07:48:06.557Z,12.00
2018-09-29T07:50:34.545Z,12.00
2018-09-29T07:53:02.591Z,12.20
2018-09-29T07:55:31.391Z,12.10
2018-09-29T07:57:59.537Z,12.10
2018-09-29T08:00:27.642Z,12.20
2018-09-29T08:02:55.652Z,12.20
2018-09-29T08:05:23.546Z,12.30
2018-09-29T08:07:51.466Z,12.40
2018-09-29T08:10:21.521Z,12.50
2018-09-29T08:12:49.446Z,12.50
2018-09-29T08:15:17.557Z,12.60
2018-09-29T08:17:45.510Z,12.70
2018-09-29T08:20:13.453Z,12.70
2018-09-29T08:22:41.464Z,12.80
2018-09-29T08:25:09.429Z,12.80
2018-09-29T08:27:37.405Z,12.80
2018-09-29T08:30:05.455Z,12.80
2018-09-29T08:32:33.402Z,12.90
2018-09-29T08:35:01.382Z,13.00
2018-09-29T08:37:29.351Z,13.20
2018-09-29T08:39:57.409Z,13.20
2018-09-29T08:42:25.329Z,13.20
2018-09-29T08:44:53.213Z,13.20
2018-09-29T08:47:21.313Z,13.30
2018-09-29T08:49:49.346Z,13.30
2018-09-29T08:52:17.384Z,13.40
2018-09-29T08:54:45.293Z,13.50
2018-09-29T08:57:13.286Z,13.50
2018-09-29T08:59:42.161Z,13.70
2018-09-29T09:02:10.097Z,13.70
2018-09-29T09:04:38.082Z,13.70
2018-09-29T09:07:06.163Z,13.70
2018-09-29T09:09:34.579Z,13.70
2018-09-29T09:12:03.578Z,13.80
2018-09-29T09:14:31.489Z,13.90
2018-09-29T09:16:59.622Z,13.90
2018-09-29T09:19:27.505Z,14.00
2018-09-29T09:21:55.481Z,14.00
2018-09-29T09:24:23.434Z,14.00
2018-09-29T09:26:51.997Z,14.10
2018-09-29T09:29:20.597Z,14.20
2018-09-29T09:31:48.524Z,14.20
2018-09-29T09:34:16.485Z,14.30
2018-09-29T09:36:44.632Z,14.30
2018-09-29T09:39:12.556Z,14.30
2018-09-29T09:41:40.721Z,14.30
2018-09-29T09:44:08.849Z,14.30
2018-09-29T09:46:36.781Z,14.50
2018-09-29T09:49:04.821Z,14.50
2018-09-29T09:51:32.941Z,14.60
2018-09-29T09:54:01.026Z,14.70
2018-09-29T09:56:29.017Z,14.80
2018-09-29T09:58:57.258Z,14.80
2018-09-29T10:01:30.796Z,14.90
2018-09-29T10:03:58.747Z,15.00
2018-09-29T10:06:26.883Z,15.00
2018-09-29T10:08:54.764Z,15.00
2018-09-29T10:11:22.930Z,15.10
2018-09-29T10:13:50.868Z,15.20
2018-09-29T10:16:19.750Z,15.20
2018-09-29T10:18:48.636Z,15.30
2018-09-29T10:21:18.151Z,15.40
2018-09-29T10:23:46.105Z,15.40
2018-09-29T10:26:14.157Z,15.50
2018-09-29T10:28:42.634Z,15.40
2018-09-29T10:31:11.515Z,15.40
2018-09-29T10:33:40.358Z,15.50
2018-09-29T10:36:08.277Z,15.70
2018-09-29T10:38:36.233Z,15.70
2018-09-29T10:41:04.197Z,15.70
2018-09-29T10:43:32.305Z,15.70
2018-09-29T10:46:01.374Z,15.80
2018-09-29T10:48:29.465Z,15.80
2018-09-29T10:50:57.469Z,15.90
2018-09-29T10:53:25.432Z,15.90
2018-09-29T10:55:53.368Z,16.10
2018-09-29T10:58:21.904Z,16.10
2018-09-29T11:00:49.923Z,16.10
2018-09-29T11:03:17.918Z,16.20
2018-09-29T11:05:45.928Z,16.30
2018-09-29T11:08:14.137Z,16.50
2018-09-29T11:10:42.050Z,16.50
2018-09-29T11:13:10.267Z,16.40
2018-09-29T11:15:38.216Z,16.60
2018-09-29T11:18:06.213Z,16.60
2018-09-29T11:20:34.315Z,16.70
2018-09-29T11:23:02.235Z,16.70
2018-09-29T11:25:30.200Z,16.70
2018-09-29T11:27:58.336Z,16.80
2018-09-29T11:30:26.303Z,16.80
2018-09-29T11:32:54.293Z,16.80
2018-09-29T11:35:22.534Z,16.90
2018-09-29T11:37:51.019Z,16.90
2018-09-29T11:40:18.970Z,17.00
2018-09-29T11:42:46.884Z,17.10
2018-09-29T11:45:14.901Z,17.00
2018-09-29T11:47:43.108Z,17.20
2018-09-29T11:50:11.093Z,17.20
2018-09-29T11:52:39.085Z,17.10
2018-09-29T11:55:07.046Z,17.10
2018-09-29T11:57:34.982Z,17.20
2018-09-29T12:00:02.983Z,17.20
2018-09-29T12:02:31.009Z,17.30
2018-09-29T12:04:58.977Z,17.30
2018-09-29T12:07:27.878Z,17.40
2018-09-29T12:09:55.778Z,17.40
2018-09-29T12:12:23.731Z,17.50
2018-09-29T12:14:51.718Z,17.60
2018-09-29T12:17:19.617Z,17.60
2018-09-29T12:19:48.332Z,17.60
2018-09-29T12:22:16.352Z,17.70
2018-09-29T12:24:44.287Z,17.70
2018-09-29T12:27:12.332Z,17.80
2018-09-29T12:29:40.233Z,17.90
2018-09-29T12:32:08.208Z,17.90
2018-09-29T12:34:36.162Z,18.00
2018-09-29T12:37:04.278Z,17.90
2018-09-29T12:39:32.237Z,17.90
2018-09-29T12:42:00.215Z,18.00
2018-09-29T12:44:28.544Z,18.10
2018-09-29T12:46:56.450Z,18.10
2018-09-29T12:49:25.524Z,18.10
2018-09-29T12:51:53.525Z,18.20
2018-09-29T12:54:21.499Z,18.20
2018-09-29T12:56:49.522Z,18.30
2018-09-29T12:59:17.720Z,18.40
2018-09-29T13:01:46.057Z,18.40
2018-09-29T13:04:14.662Z,18.40
2018-09-29T13:06:42.879Z,18.50
2018-09-29T13:09:10.988Z,18.60
2018-09-29T13:11:39.080Z,18.60
2018-09-29T13:14:07.533Z,18.70
2018-09-29T13:16:36.257Z,18.70
2018-09-29T13:19:04.689Z,18.70
2018-09-29T13:21:32.698Z,18.80
2018-09-29T13:24:00.683Z,18.90
2018-09-29T13:26:28.986Z,19.00
2018-09-29T13:28:57.661Z,19.10
2018-09-29T13:31:25.645Z,19.20
2018-09-29T13:33:53.650Z,19.50
2018-09-29T13:36:21.754Z,19.80
2018-09-29T13:38:50.130Z,20.10
2018-09-29T13:41:18.410Z,20.30
2018-09-29T13:43:46.826Z,20.70
2018-09-29T13:46:15.730Z,21.20
2018-09-29T13:48:43.936Z,21.70
2018-09-29T13:51:12.009Z,22.00
2018-09-29T13:53:40.270Z,22.50
2018-09-29T13:56:08.273Z,23.10
2018-09-29T13:58:36.219Z,23.60
2018-09-29T14:01:04.334Z,24.00
2018-09-29T14:03:32.291Z,24.40
2018-09-29T14:06:00.381Z,24.80
2018-09-29T14:08:28.428Z,25.20
2018-09-29T14:10:56.416Z,25.50
2018-09-29T14:13:24.445Z,25.90
2018-09-29T14:18:20.906Z,26.40
2018-09-29T14:23:19.733Z,27.00
2018-09-29T14:25:48.196Z,27.20
2018-09-29T14:30:44.228Z,27.60
2018-09-29T14:33:12.172Z,27.80
2018-09-29T14:38:08.080Z,28.20
2018-09-29T14:40:36.041Z,28.30
2018-09-29T14:43:04.021Z,28.40
2018-09-29T14:45:31.942Z,28.60
2018-09-29T16:38:53.143Z,23.70
2018-09-29T16:41:21.194Z,23.20
2018-09-29T16:43:49.201Z,22.70
2018-09-29T16:46:17.150Z,22.30
2018-09-29T16:48:45.137Z,21.90
2018-09-29T16:51:13.209Z,21.50
2018-09-29T16:53:41.150Z,21.10
2018-09-29T16:56:09.099Z,20.70
2018-09-29T16:58:36.983Z,20.30
2018-09-29T17:01:05.083Z,20.00
2018-09-29T17:03:33.112Z,19.60
2018-09-29T17:06:01.023Z,19.20
2018-09-29T17:08:28.964Z,18.90
2018-09-29T17:10:57.435Z,18.60
2018-09-29T17:13:25.413Z,18.30
2018-09-29T17:15:53.423Z,18.00
2018-09-29T17:18:21.449Z,17.70
2018-09-29T17:20:49.372Z,17.50
2018-09-29T17:23:17.329Z,17.20
2018-09-29T17:25:45.252Z,17.00
2018-09-29T17:28:13.471Z,16.80
2018-09-29T17:30:41.379Z,16.50
2018-09-29T17:33:09.287Z,16.30
2018-09-29T17:35:38.292Z,16.10
2018-09-29T17:38:06.238Z,15.90
2018-09-29T17:40:34.229Z,15.70
2018-09-29T17:43:02.721Z,15.50
2018-09-29T17:45:30.646Z,15.40
2018-09-29T17:47:58.704Z,15.20
2018-09-29T17:50:26.839Z,15.00
2018-09-29T17:52:55.218Z,14.90
2018-09-29T17:55:23.127Z,14.70
2018-09-29T17:57:51.040Z,14.60
2018-09-29T18:00:18.968Z,14.50
2018-09-29T18:02:47.095Z,14.30
2018-09-29T18:05:14.983Z,14.20
2018-09-29T18:07:42.906Z,14.10
2018-09-29T18:10:10.899Z,14.00
2018-09-29T18:12:38.778Z,13.90
2018-09-29T18:15:06.778Z,13.70
2018-09-29T18:17:34.678Z,13.60
2018-09-29T18:20:02.746Z,13.50
2018-09-29T18:22:30.694Z,13.40
2018-09-29T18:24:58.617Z,13.40
2018-09-29T18:27:26.619Z,13.30
2018-09-29T18:29:54.558Z,13.20
2018-09-29T18:32:22.560Z,13.10
2018-09-29T18:34:50.428Z,13.00
2018-09-29T18:37:18.474Z,12.90
2018-09-29T18:39:46.368Z,12.80
2018-09-29T18:42:14.506Z,12.70
2018-09-29T18:44:42.520Z,12.70
2018-09-29T18:47:10.546Z,12.60
2018-09-29T18:49:38.824Z,12.50
2018-09-29T18:52:06.981Z,12.50
2018-09-29T18:54:34.957Z,12.30
2018-09-29T18:57:02.879Z,12.20
2018-09-29T18:59:30.838Z,12.10
2018-09-29T19:01:58.778Z,12.10
2018-09-29T19:04:26.745Z,12.00
2018-09-29T19:06:54.756Z,11.90
2018-09-29T19:09:22.714Z,11.80
2018-09-29T19:11:50.695Z,11.80
2018-09-29T19:14:20.356Z,11.60
2018-09-29T19:16:48.450Z,11.60
2018-09-29T19:19:16.421Z,11.50
2018-09-29T19:21:44.389Z,11.40
2018-09-29T19:24:12.348Z,11.30
2018-09-29T19:26:40.326Z,11.20
2018-09-29T19:29:08.632Z,11.10
2018-09-29T19:31:36.569Z,11.10
2018-09-29T19:34:04.528Z,11.00
2018-09-29T19:36:33.906Z,10.90
2018-09-29T19:39:02.478Z,10.90
2018-09-29T19:41:31.165Z,10.80
2018-09-29T19:44:01.966Z,10.80
2018-09-29T19:46:30.233Z,10.70
2018-09-29T19:48:58.165Z,10.70
2018-09-29T19:51:26.599Z,10.60
2018-09-29T19:53:54.592Z,10.50
2018-09-29T19:56:22.827Z,10.40
2018-09-29T19:58:50.780Z,10.40
2018-09-29T20:01:18.703Z,10.30
2018-09-29T20:03:46.803Z,10.20
2018-09-29T20:06:14.724Z,10.20
2018-09-29T20:08:42.640Z,10.10
2018-09-29T20:11:11.521Z,10.10
2018-09-29T20:13:39.431Z,10.00
2018-09-29T20:16:07.624Z,10.00
2018-09-29T20:18:35.710Z,9.90
2018-09-29T20:21:03.690Z,9.90
2018-09-29T20:23:31.634Z,9.80
2018-09-29T20:25:59.584Z,9.80
2018-09-29T20:28:27.574Z,9.70
2018-09-29T20:30:55.468Z,9.70
2018-09-29T20:33:23.438Z,9.60
2018-09-29T20:35:51.500Z,9.60
2018-09-29T20:38:19.393Z,9.50
2018-09-29T20:40:47.365Z,9.40
2018-09-29T20:43:15.323Z,9.30
2018-09-29T20:45:43.327Z,9.30
2018-09-29T20:48:11.285Z,9.30
2018-09-29T20:50:39.204Z,9.20
2018-09-29T20:53:07.244Z,9.20
2018-09-29T20:55:35.162Z,9.10
2018-09-29T20:58:03.157Z,9.10
2018-09-29T21:00:31.114Z,9.10
2018-09-29T21:02:59.079Z,9.00
2018-09-29T21:05:27.102Z,8.90
2018-09-29T21:07:55.092Z,8.90
2018-09-29T21:10:23.046Z,8.90
2018-09-29T21:12:50.982Z,8.90
2018-09-29T21:15:19.768Z,8.80
2018-09-29T21:17:47.728Z,8.80
2018-09-29T21:20:15.701Z,8.80
2018-09-29T21:22:43.908Z,8.80
2018-09-29T21:25:11.927Z,8.70
2018-09-29T21:27:39.863Z,8.70
2018-09-29T21:30:08.297Z,8.70
2018-09-29T21:32:36.281Z,8.60
2018-09-29T21:35:04.342Z,8.60
2018-09-29T21:37:32.312Z,8.50
2018-09-29T21:40:00.202Z,8.50
2018-09-29T21:42:28.182Z,8.50
2018-09-29T21:44:56.033Z,8.40
2018-09-29T21:47:23.989Z,8.40
2018-09-29T21:49:51.913Z,8.30
2018-09-29T21:52:19.900Z,8.30
2018-09-29T21:54:48.588Z,8.30
2018-09-29T21:57:16.483Z,8.30
2018-09-29T21:59:44.425Z,8.20
2018-09-29T22:02:12.313Z,8.20
2018-09-29T22:04:40.281Z,8.20
2018-09-29T22:07:08.239Z,8.10
2018-09-29T22:09:36.147Z,8.10
2018-09-29T22:12:04.672Z,8.00
2018-09-29T22:14:32.682Z,8.00
2018-09-29T22:17:01.104Z,8.00
2018-09-29T22:19:29.117Z,8.00
2018-09-29T22:21:57.513Z,8.00
2018-09-29T22:24:25.456Z,7.90
2018-09-29T22:26:53.349Z,7.90
2018-09-29T22:29:21.281Z,7.90
2018-09-29T22:31:49.299Z,7.90
2018-09-29T22:34:17.217Z,7.90
2018-09-29T22:36:45.137Z,7.80
2018-09-29T22:39:13.109Z,7.80
2018-09-29T22:41:41.017Z,7.80
2018-09-29T22:44:09.316Z,7.80
2018-09-29T22:46:37.244Z,7.80
2018-09-29T22:49:05.546Z,7.80
2018-09-29T22:51:33.480Z,7.90
2018-09-29T22:54:01.405Z,7.80
2018-09-29T22:56:29.373Z,7.80
2018-09-29T22:58:57.354Z,7.80
2018-09-29T23:01:25.338Z,7.80
2018-09-29T23:03:53.744Z,7.80
2018-09-29T23:06:21.675Z,7.80
2018-09-29T23:08:49.816Z,7.70
2018-09-29T23:11:17.788Z,7.70
2018-09-29T23:13:45.705Z,7.70
2018-09-29T23:16:13.905Z,7.70
2018-09-29T23:18:42.121Z,7.70
2018-09-29T23:21:10.848Z,7.60
2018-09-29T23:23:38.785Z,7.60
2018-09-29T23:26:06.773Z,7.60
2018-09-29T23:28:34.718Z,7.50
2018-09-29T23:31:02.656Z,7.50
2018-09-29T23:33:31.568Z,7.50
2018-09-29T23:35:59.503Z,7.50
2018-09-29T23:38:27.419Z,7.50
2018-09-29T23:40:55.371Z,7.60
2018-09-29T23:43:23.365Z,7.50
2018-09-29T23:45:51.371Z,7.50
2018-09-29T23:48:19.281Z,7.50
2018-09-29T23:50:47.253Z,7.50
2018-09-29T23:53:15.302Z,7.50
2018-09-29T23:55:43.249Z,7.60
2018-09-29T23:58:11.812Z,7.50
